createdAt,value
2019-03-30T00:01:00.992Z,101414.83
2019-03-30T00:03:32.748Z,101411.30
2019-03-30T00:06:04.123Z,101412.20
2019-03-30T00:08:37.358Z,101409.55
2019-03-30T00:11:08.575Z,101406.95
2019-03-30T00:13:39.891Z,101402.98
2019-03-30T00:16:11.228Z,101396.84
2019-03-30T00:18:43.566Z,101394.65
2019-03-30T00:21:15.983Z,101406.12
2019-03-30T00:23:48.154Z,101410.93
2019-03-30T00:26:19.414Z,101412.28
2019-03-30T00:28:52.114Z,101415.80
2019-03-30T00:31:23.344Z,101413.59
2019-03-30T00:33:54.577Z,101420.19
2019-03-30T00:36:25.809Z,101418.39
2019-03-30T00:38:58.695Z,101414.02
2019-03-30T00:41:29.895Z,101416.16
2019-03-30T00:44:01.124Z,101414.83
2019-03-30T00:46:32.636Z,101419.22
2019-03-30T00:49:03.946Z,101417.03
2019-03-30T00:51:35.290Z,101406.05
2019-03-30T00:54:06.596Z,101406.05
2019-03-30T00:56:37.885Z,101399.92
2019-03-30T00:59:09.009Z,101398.23
2019-03-30T01:01:40.369Z,101402.61
2019-03-30T01:04:12.727Z,101392.98
2019-03-30T01:06:44.048Z,101395.18
2019-03-30T01:09:15.369Z,101391.25
2019-03-30T01:11:46.720Z,101391.26
2019-03-30T01:14:20.099Z,101386.44
2019-03-30T01:16:51.379Z,101382.08
2019-03-30T01:19:22.724Z,101376.34
2019-03-30T01:21:56.232Z,101383.39
2019-03-30T01:24:27.167Z,101372.41
2019-03-30T01:26:58.965Z,101373.30
2019-03-30T01:29:30.270Z,101382.98
2019-03-30T01:32:02.620Z,101383.89
2019-03-30T01:34:35.996Z,101383.05
2019-03-30T01:37:07.400Z,101385.69
2019-03-30T01:39:38.706Z,101374.72
2019-03-30T01:42:10.082Z,101375.59
2019-03-30T01:44:41.418Z,101379.13
2019-03-30T01:47:16.106Z,101373.00
2019-03-30T01:49:47.450Z,101379.13
2019-03-30T01:52:18.816Z,101380.00
2019-03-30T01:54:50.141Z,101383.52
2019-03-30T01:57:21.467Z,101374.74
2019-03-30T01:59:53.723Z,101368.61
2019-03-30T02:02:26.032Z,101371.69
2019-03-30T02:04:57.419Z,101367.28
2019-03-30T02:07:28.824Z,101371.67
2019-03-30T02:10:00.380Z,101367.74
2019-03-30T02:12:31.670Z,101364.23
2019-03-30T02:15:03.035Z,101370.39
2019-03-30T02:17:34.366Z,101367.74
2019-03-30T02:20:07.607Z,101366.00
2019-03-30T02:22:39.997Z,101363.36
2019-03-30T02:25:11.223Z,101364.27
2019-03-30T02:27:42.514Z,101362.95
2019-03-30T02:30:13.897Z,101370.38
2019-03-30T02:32:45.241Z,101367.78
2019-03-30T02:35:18.912Z,101366.89
2019-03-30T02:37:50.472Z,101369.08
2019-03-30T02:40:23.093Z,101366.45
2019-03-30T02:42:54.418Z,101375.65
2019-03-30T02:45:27.970Z,101372.13
2019-03-30T02:48:00.422Z,101374.33
2019-03-30T02:50:47.767Z,101369.52
2019-03-30T02:53:04.847Z,101376.52
2019-03-30T02:55:38.243Z,101375.63
2019-03-30T02:58:09.497Z,101375.65
2019-03-30T03:00:40.809Z,101368.17
2019-03-30T03:03:12.092Z,101359.41
2019-03-30T03:05:43.374Z,101360.29
2019-03-30T03:08:14.710Z,101358.53
2019-03-30T03:10:46.010Z,101358.11
2019-03-30T03:13:17.303Z,101366.44
2019-03-30T03:15:49.062Z,101354.16
2019-03-30T03:18:22.395Z,101351.09
2019-03-30T03:21:07.194Z,101357.69
2019-03-30T03:23:28.626Z,101355.03
2019-03-30T03:25:59.951Z,101354.16
2019-03-30T03:28:31.246Z,101359.00
2019-03-30T03:31:02.591Z,101357.25
2019-03-30T03:33:35.057Z,101356.36
2019-03-30T03:36:06.378Z,101362.52
2019-03-30T03:38:38.785Z,101357.67
2019-03-30T03:41:10.125Z,101355.49
2019-03-30T03:43:41.411Z,101354.61
2019-03-30T03:46:12.777Z,101362.50
2019-03-30T03:48:44.010Z,101365.56
2019-03-30T03:51:25.781Z,101376.51
2019-03-30T03:53:48.343Z,101370.37
2019-03-30T03:56:20.042Z,101371.69
2019-03-30T03:58:51.149Z,101373.03
2019-03-30T04:01:22.498Z,101381.78
2019-03-30T04:03:54.889Z,101375.59
2019-03-30T04:06:26.182Z,101368.48
2019-03-30T04:08:57.806Z,101367.94
2019-03-30T04:11:29.052Z,101374.94
2019-03-30T04:14:01.062Z,101381.42
2019-03-30T04:16:32.421Z,101380.28
2019-03-30T04:19:03.715Z,101377.98
2019-03-30T04:21:44.256Z,101379.28
2019-03-30T04:24:09.069Z,101389.56
2019-03-30T04:26:41.377Z,101389.56
2019-03-30T04:29:12.676Z,101391.56
2019-03-30T04:31:44.008Z,101395.45
2019-03-30T04:34:15.397Z,101395.81
2019-03-30T04:36:46.598Z,101402.02
2019-03-30T04:39:19.496Z,101399.39
2019-03-30T04:41:50.813Z,101399.92
2019-03-30T04:44:22.155Z,101402.14
2019-03-30T04:46:53.481Z,101408.47
2019-03-30T04:49:24.851Z,101414.09
2019-03-30T04:51:57.795Z,101410.58
2019-03-30T04:54:29.219Z,101403.02
2019-03-30T04:57:03.401Z,101411.94
2019-03-30T04:59:35.674Z,101426.08
2019-03-30T05:02:08.610Z,101414.86
2019-03-30T05:04:40.831Z,101424.88
2019-03-30T05:07:12.219Z,101427.20
2019-03-30T05:09:43.524Z,101425.28
2019-03-30T05:12:14.882Z,101426.16
2019-03-30T05:14:46.213Z,101429.65
2019-03-30T05:17:18.000Z,101433.09
2019-03-30T05:19:49.323Z,101432.89
2019-03-30T05:22:20.632Z,101434.17
2019-03-30T05:24:51.986Z,101438.29
2019-03-30T05:27:23.398Z,101435.12
2019-03-30T05:29:54.925Z,101433.75
2019-03-30T05:32:26.213Z,101423.95
2019-03-30T05:34:57.541Z,101414.36
2019-03-30T05:37:28.941Z,101429.48
2019-03-30T05:40:00.373Z,101421.47
2019-03-30T05:42:31.687Z,101428.00
2019-03-30T05:45:03.029Z,101425.33
2019-03-30T05:47:35.395Z,101423.19
2019-03-30T05:50:07.144Z,101435.09
2019-03-30T05:52:39.699Z,101429.58
2019-03-30T05:55:12.219Z,101429.48
2019-03-30T05:57:43.912Z,101430.38
2019-03-30T06:00:16.782Z,101432.20
2019-03-30T06:02:48.195Z,101432.33
2019-03-30T06:05:21.698Z,101432.11
2019-03-30T06:07:52.987Z,101424.73
2019-03-30T06:10:24.308Z,101429.73
2019-03-30T06:12:57.073Z,101431.88
2019-03-30T06:15:28.318Z,101430.77
2019-03-30T06:18:00.832Z,101428.80
2019-03-30T06:20:32.157Z,101439.25
2019-03-30T06:23:03.498Z,101435.09
2019-03-30T06:25:35.569Z,101432.68
2019-03-30T06:28:06.900Z,101431.58
2019-03-30T06:30:40.761Z,101430.39
2019-03-30T06:33:12.122Z,101432.38
2019-03-30T06:35:43.433Z,101434.73
2019-03-30T06:38:14.739Z,101434.73
2019-03-30T06:40:46.098Z,101429.27
2019-03-30T06:43:17.462Z,101427.45
2019-03-30T06:45:48.827Z,101430.70
2019-03-30T06:48:20.270Z,101421.55
2019-03-30T06:50:51.623Z,101415.53
2019-03-30T06:53:23.099Z,101421.01
2019-03-30T06:55:55.457Z,101418.82
2019-03-30T06:58:26.812Z,101415.59
2019-03-30T07:00:58.257Z,101417.45
2019-03-30T07:03:29.633Z,101417.03
2019-03-30T07:06:01.010Z,101413.45
2019-03-30T07:08:32.261Z,101417.55
2019-03-30T07:11:03.614Z,101411.88
2019-03-30T07:13:35.999Z,101410.88
2019-03-30T07:16:07.512Z,101414.00
2019-03-30T07:18:38.854Z,101412.53
2019-03-30T07:21:11.185Z,101415.20
2019-03-30T07:23:42.563Z,101409.73
2019-03-30T07:26:13.983Z,101417.75
2019-03-30T07:28:47.089Z,101410.22
2019-03-30T07:31:18.490Z,101408.88
2019-03-30T07:33:49.962Z,101401.91
2019-03-30T07:36:21.245Z,101408.84
2019-03-30T07:38:52.580Z,101406.35
2019-03-30T07:41:25.019Z,101413.91
2019-03-30T07:43:56.348Z,101404.14
2019-03-30T07:46:27.679Z,101405.30
2019-03-30T07:48:59.424Z,101407.66
2019-03-30T07:51:33.499Z,101406.38
2019-03-30T07:54:04.718Z,101404.18
2019-03-30T07:56:36.143Z,101405.70
2019-03-30T07:59:07.452Z,101405.72
2019-03-30T08:01:39.279Z,101408.95
2019-03-30T08:04:10.687Z,101405.11
2019-03-30T08:06:53.566Z,101401.64
2019-03-30T08:09:24.689Z,101399.10
2019-03-30T08:11:57.422Z,101405.73
2019-03-30T08:14:28.850Z,101413.09
2019-03-30T08:17:00.216Z,101407.41
2019-03-30T08:19:31.519Z,101412.29
2019-03-30T08:22:02.957Z,101421.36
2019-03-30T08:24:35.576Z,101417.02
2019-03-30T08:27:11.094Z,101420.78
2019-03-30T08:29:51.023Z,101430.67
2019-03-30T08:32:22.671Z,101430.74
2019-03-30T08:34:55.976Z,101430.37
2019-03-30T08:37:30.805Z,101437.44
2019-03-30T08:40:03.933Z,101441.91
2019-03-30T08:42:46.627Z,101446.63
2019-03-30T08:45:21.632Z,101447.38
2019-03-30T08:47:53.641Z,101445.10
2019-03-30T08:50:28.380Z,101442.64
2019-03-30T08:53:02.777Z,101440.79
2019-03-30T08:55:34.394Z,101448.11
2019-03-30T08:58:09.804Z,101444.70
2019-03-30T09:00:43.487Z,101437.90
2019-03-30T09:03:20.187Z,101442.89
2019-03-30T09:05:51.728Z,101440.83
2019-03-30T09:08:24.277Z,101442.84
2019-03-30T09:10:56.752Z,101445.27
2019-03-30T09:13:28.223Z,101442.03
2019-03-30T09:15:59.596Z,101441.52
2019-03-30T09:18:31.083Z,101437.63
2019-03-30T09:21:02.456Z,101437.90
2019-03-30T09:23:33.907Z,101435.48
2019-03-30T09:26:06.383Z,101438.97
2019-03-30T09:28:37.712Z,101444.19
2019-03-30T09:31:09.148Z,101439.48
2019-03-30T09:33:40.496Z,101437.75
2019-03-30T09:36:11.942Z,101430.37
2019-03-30T09:38:46.257Z,101426.52
2019-03-30T09:41:17.558Z,101426.32
2019-03-30T09:43:48.893Z,101432.42
2019-03-30T09:46:21.347Z,101432.67
2019-03-30T09:48:56.541Z,101428.82
2019-03-30T09:51:29.246Z,101438.75
2019-03-30T09:54:23.161Z,101429.84
2019-03-30T09:56:44.778Z,101439.57
2019-03-30T09:59:16.526Z,101441.55
2019-03-30T10:01:53.736Z,101444.17
2019-03-30T10:04:28.272Z,101443.11
2019-03-30T10:07:00.759Z,101445.66
2019-03-30T10:09:32.222Z,101435.95
2019-03-30T10:12:03.892Z,101446.23
2019-03-30T10:14:35.332Z,101442.37
2019-03-30T10:17:08.054Z,101443.25
2019-03-30T10:19:39.459Z,101446.15
2019-03-30T10:22:12.028Z,101449.60
2019-03-30T10:24:44.428Z,101459.45
2019-03-30T10:27:15.913Z,101459.31
2019-03-30T10:29:51.028Z,101460.95
2019-03-30T10:32:26.843Z,101450.31
2019-03-30T10:35:01.079Z,101453.67
2019-03-30T10:37:35.342Z,101446.72
2019-03-30T10:40:08.443Z,101447.73
2019-03-30T10:42:39.994Z,101455.75
2019-03-30T10:45:11.513Z,101450.22
2019-03-30T10:47:42.923Z,101445.29
2019-03-30T10:50:16.363Z,101450.11
2019-03-30T10:52:47.896Z,101444.91
2019-03-30T10:55:19.320Z,101438.16
2019-03-30T10:57:50.694Z,101442.77
2019-03-30T11:00:40.679Z,101438.59
2019-03-30T11:03:13.268Z,101433.73
2019-03-30T11:05:44.772Z,101438.76
2019-03-30T11:08:16.382Z,101430.81
2019-03-30T11:10:49.361Z,101431.63
2019-03-30T11:13:21.824Z,101427.17
2019-03-30T11:15:53.382Z,101435.06
2019-03-30T11:18:25.875Z,101434.64
2019-03-30T11:20:57.317Z,101436.08
2019-03-30T11:23:28.707Z,101440.77
2019-03-30T11:26:00.125Z,101433.77
2019-03-30T11:28:31.511Z,101435.74
2019-03-30T11:31:05.370Z,101436.38
2019-03-30T11:33:36.135Z,101434.23
2019-03-30T11:36:07.594Z,101438.07
2019-03-30T11:38:39.998Z,101431.62
2019-03-30T11:41:11.341Z,101440.03
2019-03-30T11:43:42.741Z,101431.40
2019-03-30T11:46:14.313Z,101428.23
2019-03-30T11:48:45.810Z,101427.52
2019-03-30T11:51:17.219Z,101422.05
2019-03-30T11:53:49.711Z,101423.67
2019-03-30T11:56:23.647Z,101426.87
2019-03-30T11:58:56.098Z,101423.59
2019-03-30T12:01:28.919Z,101424.22
2019-03-30T12:04:01.661Z,101425.18
2019-03-30T12:06:35.285Z,101422.11
2019-03-30T12:09:08.409Z,101425.73
2019-03-30T12:11:40.847Z,101420.37
2019-03-30T12:14:13.537Z,101427.02
2019-03-30T12:16:45.104Z,101429.73
2019-03-30T12:19:16.470Z,101420.37
2019-03-30T12:21:47.846Z,101418.48
2019-03-30T12:24:20.231Z,101417.70
2019-03-30T12:26:51.708Z,101413.67
2019-03-30T12:29:24.143Z,101417.79
2019-03-30T12:31:55.501Z,101414.13
2019-03-30T12:34:26.946Z,101412.03
2019-03-30T12:36:58.290Z,101413.95
2019-03-30T12:39:29.685Z,101406.58
2019-03-30T12:42:03.407Z,101406.22
2019-03-30T12:44:35.913Z,101397.34
2019-03-30T12:47:10.220Z,101397.42
2019-03-30T12:49:45.214Z,101398.23
2019-03-30T12:52:16.658Z,101393.64
2019-03-30T12:54:48.018Z,101400.01
2019-03-30T12:57:19.778Z,101396.44
2019-03-30T12:59:52.320Z,101400.49
2019-03-30T13:02:26.409Z,101398.71
2019-03-30T13:04:57.896Z,101389.25
2019-03-30T13:07:32.129Z,101386.45
2019-03-30T13:10:06.411Z,101389.22
2019-03-30T13:12:39.397Z,101388.97
2019-03-30T13:15:10.741Z,101392.48
2019-03-30T13:17:42.034Z,101388.09
2019-03-30T13:20:16.698Z,101388.16
2019-03-30T13:22:48.074Z,101390.55
2019-03-30T13:25:19.591Z,101387.04
2019-03-30T13:27:53.415Z,101383.08
2019-03-30T13:30:24.126Z,101385.87
2019-03-30T13:32:55.438Z,101381.46
2019-03-30T13:35:26.819Z,101380.03
2019-03-30T13:37:58.366Z,101380.38
2019-03-30T13:40:31.320Z,101380.10
2019-03-30T13:43:04.655Z,101374.76
2019-03-30T13:45:36.011Z,101376.80
2019-03-30T13:48:11.728Z,101388.94
2019-03-30T13:50:43.420Z,101386.41
2019-03-30T13:53:14.855Z,101391.61
2019-03-30T13:55:46.332Z,101389.75
2019-03-30T13:58:17.677Z,101383.88
2019-03-30T14:00:49.041Z,101385.28
2019-03-30T14:03:20.516Z,101388.27
2019-03-30T14:05:51.823Z,101386.50
2019-03-30T14:08:23.138Z,101392.41
2019-03-30T14:10:56.507Z,101394.34
2019-03-30T14:13:27.969Z,101391.95
2019-03-30T14:15:59.961Z,101384.37
2019-03-30T14:18:31.360Z,101383.43
2019-03-30T14:21:04.976Z,101386.61
2019-03-30T14:23:37.383Z,101375.20
2019-03-30T14:26:08.714Z,101378.53
2019-03-30T14:28:40.683Z,101384.94
2019-03-30T14:31:13.273Z,101386.44
2019-03-30T14:33:44.720Z,101383.63
2019-03-30T14:36:17.215Z,101385.98
2019-03-30T14:38:50.100Z,101389.69
2019-03-30T14:41:21.567Z,101393.06
2019-03-30T14:43:52.952Z,101396.72
2019-03-30T14:46:24.398Z,101394.45
2019-03-30T14:48:57.563Z,101391.66
2019-03-30T14:51:28.961Z,101393.13
2019-03-30T14:54:00.324Z,101392.13
2019-03-30T14:56:44.989Z,101394.95
2019-03-30T14:59:10.388Z,101397.05
2019-03-30T15:01:44.203Z,101390.30
2019-03-30T15:04:16.094Z,101395.63
2019-03-30T15:06:50.891Z,101396.78
2019-03-30T15:09:28.322Z,101393.63
2019-03-30T15:12:03.256Z,101401.23
2019-03-30T15:14:40.387Z,101400.80
2019-03-30T15:17:12.215Z,101402.67
2019-03-30T15:19:47.608Z,101408.59
2019-03-30T15:22:20.681Z,101405.73
2019-03-30T15:24:52.324Z,101409.63
2019-03-30T15:27:29.468Z,101405.63
2019-03-30T15:30:01.345Z,101404.93
2019-03-30T15:32:44.492Z,101405.83
2019-03-30T15:35:17.320Z,101405.88
2019-03-30T15:37:48.756Z,101410.00
2019-03-30T15:40:23.303Z,101412.33
2019-03-30T15:43:00.691Z,101412.05
2019-03-30T15:45:36.849Z,101411.86
2019-03-30T15:48:08.835Z,101410.41
2019-03-30T15:50:41.731Z,101413.34
2019-03-30T15:53:13.151Z,101418.27
2019-03-30T15:55:44.677Z,101412.30
2019-03-30T15:58:17.057Z,101412.55
2019-03-30T16:00:49.782Z,101412.73
2019-03-30T16:03:21.393Z,101417.74
2019-03-30T16:05:52.746Z,101421.11
2019-03-30T16:08:24.219Z,101420.70
2019-03-30T16:10:55.684Z,101428.05
2019-03-30T16:13:27.055Z,101426.08
2019-03-30T16:15:59.004Z,101422.72
2019-03-30T16:18:32.540Z,101427.11
2019-03-30T16:21:05.921Z,101432.41
2019-03-30T16:23:37.860Z,101435.61
2019-03-30T16:26:09.510Z,101434.30
2019-03-30T16:28:46.169Z,101439.05
2019-03-30T16:31:18.039Z,101440.96
2019-03-30T16:33:50.280Z,101439.14
2019-03-30T16:36:29.206Z,101437.98
2019-03-30T16:39:00.565Z,101444.78
2019-03-30T16:41:32.640Z,101446.39
2019-03-30T16:44:08.612Z,101451.95
2019-03-30T16:46:39.956Z,101453.14
2019-03-30T16:49:11.395Z,101456.34
2019-03-30T16:51:42.953Z,101455.39
2019-03-30T16:54:14.228Z,101469.27
2019-03-30T16:56:46.592Z,101465.89
2019-03-30T16:59:17.929Z,101469.52
2019-03-30T17:01:52.505Z,101470.92
2019-03-30T17:04:25.571Z,101471.06
2019-03-30T17:06:57.198Z,101476.44
2019-03-30T17:09:28.541Z,101475.06
2019-03-30T17:12:03.681Z,101473.63
2019-03-30T17:14:46.913Z,101473.95
2019-03-30T17:17:21.165Z,101476.04
2019-03-30T17:19:58.536Z,101469.03
2019-03-30T17:22:31.005Z,101475.66
2019-03-30T17:25:02.416Z,101480.52
2019-03-30T17:27:36.908Z,101485.16
2019-03-30T17:30:11.950Z,101484.45
2019-03-30T17:32:46.851Z,101488.75
2019-03-30T17:35:21.010Z,101493.50
2019-03-30T17:37:52.418Z,101495.03
2019-03-30T17:40:23.911Z,101496.47
2019-03-30T17:42:55.306Z,101496.67
2019-03-30T17:45:26.752Z,101493.68
2019-03-30T17:47:58.061Z,101499.55
2019-03-30T17:50:29.506Z,101510.88
2019-03-30T17:53:00.852Z,101510.11
2019-03-30T17:55:34.392Z,101498.41
2019-03-30T17:58:13.377Z,101502.34
2019-03-30T18:00:51.618Z,101507.83
2019-03-30T18:03:28.692Z,101515.25
2019-03-30T18:06:03.004Z,101510.77
2019-03-30T18:08:34.347Z,101507.53
2019-03-30T18:11:05.596Z,101516.81
2019-03-30T18:13:37.115Z,101509.25
2019-03-30T18:16:09.766Z,101515.33
2019-03-30T18:18:41.108Z,101514.44
2019-03-30T18:21:13.514Z,101517.55
2019-03-30T18:23:47.481Z,101521.04
2019-03-30T18:26:17.775Z,101522.98
2019-03-30T18:28:49.076Z,101515.75
2019-03-30T18:31:20.613Z,101515.30
2019-03-30T18:33:56.817Z,101521.86
2019-03-30T18:36:30.185Z,101522.41
2019-03-30T18:39:09.339Z,101517.32
2019-03-30T18:41:36.149Z,101522.56
2019-03-30T18:44:07.507Z,101527.44
2019-03-30T18:46:42.814Z,101536.48
2019-03-30T18:49:14.213Z,101533.94
2019-03-30T18:51:48.769Z,101541.13
2019-03-30T18:54:19.953Z,101534.11
2019-03-30T18:56:57.593Z,101535.97
2019-03-30T18:59:25.264Z,101541.73
2019-03-30T19:01:57.696Z,101540.89
2019-03-30T19:04:28.944Z,101543.91
2019-03-30T19:07:00.874Z,101538.83
2019-03-30T19:09:34.291Z,101534.53
2019-03-30T19:12:05.687Z,101538.13
2019-03-30T19:14:36.988Z,101546.55
2019-03-30T19:17:08.332Z,101545.23
2019-03-30T19:19:39.742Z,101542.78
2019-03-30T19:22:11.097Z,101550.75
2019-03-30T19:24:42.485Z,101549.05
2019-03-30T19:27:13.801Z,101547.77
2019-03-30T19:29:45.145Z,101543.41
2019-03-30T19:32:16.478Z,101546.62
2019-03-30T19:34:47.776Z,101546.62
2019-03-30T19:37:19.105Z,101562.90
2019-03-30T19:39:50.423Z,101551.10
2019-03-30T19:42:22.272Z,101556.39
2019-03-30T19:44:53.582Z,101551.94
2019-03-30T19:47:24.926Z,101550.20
2019-03-30T19:49:56.236Z,101550.20
2019-03-30T19:52:39.217Z,101561.68
2019-03-30T19:55:00.590Z,101544.20
2019-03-30T19:57:31.901Z,101557.45
2019-03-30T20:00:04.800Z,101557.03
2019-03-30T20:02:35.983Z,101557.03
2019-03-30T20:05:07.177Z,101568.05
2019-03-30T20:07:38.494Z,101565.86
2019-03-30T20:10:09.792Z,101565.50
2019-03-30T20:12:40.979Z,101562.98
2019-03-30T20:15:13.337Z,101568.20
2019-03-30T20:17:44.643Z,101568.20
2019-03-30T20:20:15.953Z,101568.66
2019-03-30T20:22:50.845Z,101559.48
2019-03-30T20:25:25.790Z,101559.48
2019-03-30T20:27:56.032Z,101570.92
2019-03-30T20:30:27.310Z,101567.52
2019-03-30T20:32:58.591Z,101567.52
2019-03-30T20:35:29.946Z,101572.75
2019-03-30T20:38:01.226Z,101570.05
2019-03-30T20:40:32.499Z,101571.43
2019-03-30T20:43:03.838Z,101572.39
2019-03-30T20:45:35.149Z,101572.39
2019-03-30T20:48:07.679Z,101571.54
2019-03-30T20:50:39.880Z,101570.64
2019-03-30T20:53:11.195Z,101564.05
2019-03-30T20:55:42.542Z,101570.16
2019-03-30T20:58:13.896Z,101567.57
2019-03-30T21:00:45.234Z,101571.16
2019-03-30T21:03:17.609Z,101566.38
2019-03-30T21:05:48.916Z,101566.38
2019-03-30T21:08:20.193Z,101574.34
2019-03-30T21:10:51.508Z,101572.03
2019-03-30T21:13:22.838Z,101568.47
2019-03-30T21:15:59.796Z,101568.49
2019-03-30T21:18:31.128Z,101568.56
2019-03-30T21:21:03.936Z,101566.05
2019-03-30T21:23:35.261Z,101566.05
2019-03-30T21:26:07.555Z,101565.69
2019-03-30T21:28:38.907Z,101566.98
2019-03-30T21:31:11.359Z,101563.41
2019-03-30T21:33:42.791Z,101565.63
2019-03-30T21:36:15.201Z,101565.17
2019-03-30T21:38:47.475Z,101566.98
2019-03-30T21:41:18.762Z,101566.98
2019-03-30T21:43:50.163Z,101573.27
2019-03-30T21:46:21.479Z,101575.92
2019-03-30T21:48:52.821Z,101568.03
2019-03-30T21:51:24.180Z,101576.01
2019-03-30T21:53:55.406Z,101571.69
2019-03-30T21:56:26.614Z,101569.05
2019-03-30T21:58:57.949Z,101569.06
2019-03-30T22:01:29.214Z,101573.44
2019-03-30T22:04:00.501Z,101570.80
2019-03-30T22:06:31.811Z,101573.45
2019-03-30T22:09:05.588Z,101568.63
2019-03-30T22:11:36.914Z,101567.38
2019-03-30T22:14:09.878Z,101570.86
2019-03-30T22:16:41.119Z,101569.11
2019-03-30T22:19:12.757Z,101572.95
2019-03-30T22:21:44.073Z,101566.48
2019-03-30T22:24:15.530Z,101564.75
2019-03-30T22:26:46.909Z,101570.06
2019-03-30T22:29:18.239Z,101571.88
2019-03-30T22:31:50.642Z,101568.38
2019-03-30T22:34:22.009Z,101569.73
2019-03-30T22:36:53.318Z,101565.81
2019-03-30T22:39:24.653Z,101563.16
2019-03-30T22:41:55.945Z,101560.53
2019-03-30T22:44:27.407Z,101560.98
2019-03-30T22:46:58.739Z,101561.88
2019-03-30T22:49:30.088Z,101561.42
2019-03-30T22:52:01.406Z,101562.33
2019-03-30T22:54:32.765Z,101559.70
2019-03-30T22:57:04.036Z,101559.25
2019-03-30T22:59:35.427Z,101550.49
2019-03-30T23:02:06.760Z,101553.58
2019-03-30T23:04:38.074Z,101548.28
2019-03-30T23:07:09.396Z,101551.81
2019-03-30T23:09:40.689Z,101550.97
2019-03-30T23:12:11.983Z,101557.12
2019-03-30T23:14:43.334Z,101558.45
2019-03-30T23:17:14.685Z,101561.53
2019-03-30T23:19:46.009Z,101559.30
2019-03-30T23:22:17.338Z,101558.02
2019-03-30T23:24:48.655Z,101559.32
2019-03-30T23:27:20.026Z,101554.93
2019-03-30T23:29:52.784Z,101554.50
2019-03-30T23:32:27.173Z,101560.66
2019-03-30T23:34:58.469Z,101559.77
2019-03-30T23:37:29.728Z,101559.34
2019-03-30T23:40:02.437Z,101561.97
2019-03-30T23:42:33.753Z,101556.24
2019-03-30T23:45:05.666Z,101563.28
2019-03-30T23:47:36.979Z,101558.47
2019-03-30T23:50:08.738Z,101552.31
2019-03-30T23:52:40.298Z,101555.38
2019-03-30T23:55:11.588Z,101558.03
2019-03-30T23:57:42.895Z,101555.38
